createdAt,value
2019-02-23T00:00:13.530Z,88.70
2019-02-23T00:04:16.924Z,89.60
2019-02-23T00:08:20.316Z,89.40
2019-02-23T00:12:23.715Z,89.10
2019-02-23T00:16:27.124Z,90.00
2019-02-23T00:20:30.498Z,88.80
2019-02-23T00:24:33.886Z,88.40
2019-02-23T00:28:37.215Z,88.40
2019-02-23T00:32:40.606Z,88.90
2019-02-23T00:36:44.018Z,88.80
2019-02-23T00:40:47.442Z,89.40
2019-02-23T00:44:50.758Z,90.00
2019-02-23T00:48:54.158Z,90.30
2019-02-23T00:52:57.557Z,90.80
2019-02-23T00:57:00.969Z,90.40
2019-02-23T01:01:04.314Z,90.10
2019-02-23T01:05:07.719Z,88.80
2019-02-23T01:09:11.121Z,88.70
2019-02-23T01:13:14.523Z,89.00
2019-02-23T01:17:17.913Z,87.80
2019-02-23T01:21:21.220Z,88.40
2019-02-23T01:25:24.623Z,87.70
2019-02-23T01:29:28.027Z,88.40
2019-02-23T01:33:31.451Z,88.90
2019-02-23T01:37:34.859Z,88.20
2019-02-23T01:41:38.235Z,89.60
2019-02-23T01:45:42.596Z,88.60
2019-02-23T01:49:46.231Z,87.70
2019-02-23T01:53:49.627Z,85.90
2019-02-23T01:57:53.027Z,86.20
2019-02-23T02:01:56.426Z,86.40
2019-02-23T02:05:59.896Z,85.80
2019-02-23T02:10:04.326Z,87.00
2019-02-23T02:14:07.737Z,87.40
2019-02-23T02:18:11.135Z,88.00
2019-02-23T02:22:14.515Z,88.60
2019-02-23T02:26:17.907Z,89.60
2019-02-23T02:30:21.639Z,90.10
2019-02-23T02:34:25.031Z,88.70
2019-02-23T02:38:28.356Z,89.20
2019-02-23T02:42:31.731Z,89.30
2019-02-23T02:46:35.138Z,89.50
2019-02-23T02:50:38.535Z,89.60
2019-02-23T02:54:41.943Z,89.70
2019-02-23T02:58:45.333Z,89.90
2019-02-23T03:02:48.647Z,88.30
2019-02-23T03:06:52.035Z,88.60
2019-02-23T03:10:55.436Z,89.10
2019-02-23T03:14:58.858Z,89.20
2019-02-23T03:19:02.260Z,90.00
2019-02-23T03:23:05.623Z,90.30
2019-02-23T03:27:09.034Z,90.70
2019-02-23T03:31:12.424Z,91.10
2019-02-23T03:35:15.831Z,91.60
2019-02-23T03:39:19.241Z,92.10
2019-02-23T03:43:22.614Z,92.60
2019-02-23T03:47:26.015Z,92.50
2019-02-23T03:51:29.446Z,92.50
2019-02-23T03:55:32.832Z,92.60
2019-02-23T03:59:36.222Z,92.60
2019-02-23T04:03:39.602Z,92.70
2019-02-23T04:07:42.996Z,92.50
2019-02-23T04:11:46.391Z,92.20
2019-02-23T04:15:49.792Z,91.80
2019-02-23T04:19:53.186Z,91.50
2019-02-23T04:23:56.568Z,91.50
2019-02-23T04:27:59.996Z,91.40
2019-02-23T04:32:03.433Z,91.70
2019-02-23T04:36:06.854Z,91.60
2019-02-23T04:40:10.267Z,91.80
2019-02-23T04:44:13.651Z,91.70
2019-02-23T04:48:17.062Z,91.30
2019-02-23T04:52:20.527Z,91.00
2019-02-23T04:56:23.946Z,91.10
2019-02-23T05:00:27.343Z,92.00
2019-02-23T05:04:30.713Z,92.50
2019-02-23T05:08:34.104Z,92.70
2019-02-23T05:12:37.518Z,92.40
2019-02-23T05:16:40.922Z,92.00
2019-02-23T05:20:44.355Z,91.90
2019-02-23T05:24:47.740Z,92.20
2019-02-23T05:28:51.134Z,92.50
2019-02-23T05:32:54.538Z,92.70
2019-02-23T05:36:57.938Z,93.30
2019-02-23T05:41:01.331Z,93.20
2019-02-23T05:45:06.754Z,92.70
2019-02-23T05:49:10.087Z,92.00
2019-02-23T05:53:13.483Z,92.00
2019-02-23T05:57:16.888Z,91.70
2019-02-23T06:01:20.289Z,91.20
2019-02-23T06:05:23.678Z,91.40
2019-02-23T06:09:27.209Z,91.50
2019-02-23T06:13:30.604Z,91.70
2019-02-23T06:17:34.037Z,91.40
2019-02-23T06:21:37.437Z,91.10
2019-02-23T06:25:40.804Z,90.60
2019-02-23T06:29:44.200Z,91.20
2019-02-23T06:33:47.610Z,92.20
2019-02-23T06:37:53.343Z,92.30
2019-02-23T06:41:56.048Z,92.40
2019-02-23T06:45:59.433Z,92.50
2019-02-23T06:50:02.839Z,92.70
2019-02-23T06:54:06.256Z,92.40
2019-02-23T06:58:09.684Z,92.00
2019-02-23T07:02:13.197Z,91.70
2019-02-23T07:06:16.564Z,91.20
2019-02-23T07:10:19.952Z,91.30
2019-02-23T07:14:23.646Z,90.70
2019-02-23T07:18:27.059Z,90.90
2019-02-23T07:22:30.464Z,90.80
2019-02-23T07:26:33.830Z,90.00
2019-02-23T07:30:37.256Z,90.40
2019-02-23T07:34:40.645Z,90.00
2019-02-23T07:38:44.047Z,89.00
2019-02-23T07:42:47.444Z,87.20
2019-02-23T07:46:50.819Z,86.50
2019-02-23T07:50:54.238Z,85.30
2019-02-23T07:54:57.639Z,84.40
2019-02-23T07:59:01.035Z,84.10
2019-02-23T08:03:04.523Z,83.30
2019-02-23T08:07:07.890Z,82.90
2019-02-23T08:11:11.303Z,82.40
2019-02-23T08:15:15.059Z,81.80
2019-02-23T08:19:18.500Z,80.20
2019-02-23T08:23:21.898Z,78.40
2019-02-23T08:27:25.276Z,77.60
2019-02-23T08:31:28.696Z,78.50
2019-02-23T08:35:32.133Z,78.20
2019-02-23T08:39:35.522Z,76.10
2019-02-23T08:43:38.953Z,76.10
2019-02-23T08:47:42.331Z,76.60
2019-02-23T08:51:45.892Z,76.70
2019-02-23T08:55:49.292Z,77.60
2019-02-23T08:59:52.698Z,77.50
2019-02-23T09:03:56.101Z,78.20
2019-02-23T09:07:59.484Z,76.90
2019-02-23T09:12:02.864Z,75.60
2019-02-23T09:16:06.278Z,76.60
2019-02-23T09:20:11.782Z,74.70
2019-02-23T09:24:15.264Z,73.50
2019-02-23T09:28:18.654Z,76.50
2019-02-23T09:32:22.045Z,74.10
2019-02-23T09:36:25.473Z,73.00
2019-02-23T09:40:28.865Z,73.30
2019-02-23T09:44:32.269Z,75.90
2019-02-23T09:48:36.567Z,73.70
2019-02-23T09:52:39.952Z,72.60
2019-02-23T09:56:43.343Z,73.70
2019-02-23T10:00:46.749Z,71.60
2019-02-23T10:04:50.151Z,70.80
2019-02-23T10:08:53.549Z,71.90
2019-02-23T10:12:56.958Z,69.90
2019-02-23T10:17:00.296Z,69.60
2019-02-23T10:21:03.696Z,67.30
2019-02-23T10:25:07.276Z,66.40
2019-02-23T10:29:10.665Z,67.70
2019-02-23T10:33:14.063Z,67.00
2019-02-23T10:37:17.473Z,67.10
2019-02-23T10:41:20.894Z,65.40
2019-02-23T10:45:24.332Z,65.20
2019-02-23T10:49:27.703Z,64.70
2019-02-23T10:53:33.059Z,64.80
2019-02-23T10:57:36.133Z,63.10
2019-02-23T11:01:39.559Z,65.40
2019-02-23T11:05:42.984Z,65.80
2019-02-23T11:09:46.361Z,62.80
2019-02-23T11:13:49.764Z,64.40
2019-02-23T11:17:53.151Z,62.20
2019-02-23T11:21:56.577Z,61.70
2019-02-23T11:26:00.007Z,61.70
2019-02-23T11:30:04.528Z,61.60
2019-02-23T11:34:07.905Z,62.50
2019-02-23T11:38:11.451Z,61.60
2019-02-23T11:42:15.168Z,62.40
2019-02-23T11:46:18.541Z,59.10
2019-02-23T11:50:21.943Z,57.40
2019-02-23T11:54:25.369Z,60.60
2019-02-23T11:58:28.765Z,60.40
2019-02-23T12:02:32.183Z,57.70
2019-02-23T12:06:35.601Z,56.30
2019-02-23T12:10:38.984Z,55.00
2019-02-23T12:14:42.394Z,59.00
2019-02-23T12:18:45.807Z,58.20
2019-02-23T12:22:49.219Z,56.10
2019-02-23T12:26:52.656Z,58.80
2019-02-23T12:30:56.058Z,58.40
2019-02-23T12:34:59.459Z,57.90
2019-02-23T12:41:32.944Z,55.80
2019-02-23T12:45:36.330Z,59.30
2019-02-23T12:49:39.731Z,56.90
2019-02-23T12:53:43.213Z,52.10
2019-02-23T12:57:46.777Z,53.50
2019-02-23T13:01:50.231Z,53.20
2019-02-23T13:05:53.606Z,52.90
2019-02-23T13:09:57.037Z,53.50
2019-02-23T13:14:12.215Z,55.60
2019-02-23T13:18:36.872Z,54.70
2019-02-23T13:22:51.815Z,55.10
2019-02-23T13:27:04.772Z,54.50
2019-02-23T13:31:20.222Z,54.60
2019-02-23T13:35:55.817Z,54.80
2019-02-23T13:40:05.236Z,53.90
2019-02-23T13:44:19.410Z,54.80
2019-02-23T13:48:42.579Z,53.80
2019-02-23T13:53:08.688Z,52.60
2019-02-23T13:57:24.102Z,51.40
2019-02-23T14:01:39.786Z,53.30
2019-02-23T14:05:56.523Z,54.10
2019-02-23T14:10:21.103Z,54.00
2019-02-23T14:14:30.649Z,53.80
2019-02-23T14:18:52.342Z,52.70
2019-02-23T14:23:26.659Z,53.20
2019-02-23T14:27:36.032Z,53.20
2019-02-23T14:32:03.846Z,51.90
2019-02-23T14:36:31.850Z,49.60
2019-02-23T14:40:56.750Z,51.10
2019-02-23T14:46:08.414Z,50.40
2019-02-23T14:50:24.093Z,48.80
2019-02-23T14:54:42.830Z,50.90
2019-02-23T14:58:58.310Z,51.80
2019-02-23T15:03:23.193Z,52.30
2019-02-23T15:07:35.132Z,51.10
2019-02-23T15:12:09.349Z,54.30
2019-02-23T15:16:24.755Z,53.30
2019-02-23T15:20:48.301Z,53.80
2019-02-23T15:25:12.724Z,54.20
2019-02-23T15:29:31.924Z,53.50
2019-02-23T15:33:59.196Z,54.20
2019-02-23T15:38:23.946Z,54.00
2019-02-23T15:42:45.496Z,53.50
2019-02-23T15:47:25.018Z,57.20
2019-02-23T15:51:28.446Z,57.20
2019-02-23T15:55:31.832Z,59.00
2019-02-23T15:59:35.216Z,61.40
2019-02-23T16:03:38.723Z,59.40
2019-02-23T16:07:42.116Z,59.10
2019-02-23T16:11:45.536Z,58.00
2019-02-23T16:15:48.946Z,56.40
2019-02-23T16:19:52.434Z,57.50
2019-02-23T16:23:55.839Z,59.60
2019-02-23T16:27:59.238Z,62.10
2019-02-23T16:32:02.646Z,62.60
2019-02-23T16:36:06.062Z,62.50
2019-02-23T16:40:09.439Z,63.90
2019-02-23T16:44:12.952Z,65.80
2019-02-23T16:48:16.347Z,66.40
2019-02-23T16:52:19.837Z,67.80
2019-02-23T16:56:23.231Z,66.80
2019-02-23T17:00:26.715Z,70.60
2019-02-23T17:04:30.141Z,72.10
2019-02-23T17:08:33.564Z,72.60
2019-02-23T17:12:37.059Z,73.40
2019-02-23T17:16:40.427Z,73.50
2019-02-23T17:20:43.806Z,74.60
2019-02-23T17:24:47.278Z,75.40
2019-02-23T17:28:50.809Z,77.20
2019-02-23T17:32:54.286Z,83.80
2019-02-23T17:36:57.659Z,87.70
2019-02-23T17:41:01.057Z,79.40
2019-02-23T17:45:06.995Z,77.10
2019-02-23T17:49:10.586Z,80.30
2019-02-23T17:53:14.146Z,77.60
2019-02-23T17:57:17.550Z,77.40
2019-02-23T18:01:20.916Z,75.20
2019-02-23T18:05:24.443Z,74.10
2019-02-23T18:09:27.845Z,70.80
2019-02-23T18:13:31.252Z,65.10
2019-02-23T18:17:34.821Z,66.50
2019-02-23T18:21:38.227Z,64.10
2019-02-23T18:25:41.647Z,63.30
2019-02-23T18:29:45.047Z,63.70
2019-02-23T18:33:48.443Z,63.70
2019-02-23T18:37:51.844Z,64.40
2019-02-23T18:41:55.225Z,65.80
2019-02-23T18:45:58.675Z,71.10
2019-02-23T18:50:02.042Z,73.20
2019-02-23T18:54:05.443Z,76.20
2019-02-23T18:58:08.856Z,78.90
2019-02-23T19:02:12.240Z,74.30
2019-02-23T19:06:15.706Z,75.50
2019-02-23T19:10:19.102Z,75.60
2019-02-23T19:14:22.500Z,76.20
2019-02-23T19:18:29.168Z,80.30
2019-02-23T19:22:38.612Z,84.60
2019-02-23T19:26:46.925Z,84.30
2019-02-23T19:31:01.775Z,87.20
2019-02-23T19:35:23.326Z,90.60
2019-02-23T19:39:29.671Z,90.60
2019-02-23T19:43:52.217Z,90.60
2019-02-23T19:48:13.176Z,89.80
2019-02-23T19:52:19.828Z,91.90
2019-02-23T19:56:28.946Z,91.90
2019-02-23T20:00:43.560Z,91.00
2019-02-23T20:04:47.372Z,92.00
2019-02-23T20:08:51.327Z,92.50
2019-02-23T20:12:55.128Z,92.80
2019-02-23T20:17:00.798Z,92.00
2019-02-23T20:21:05.620Z,91.30
2019-02-23T20:25:11.244Z,91.40
2019-02-23T20:29:16.082Z,91.40
2019-02-23T20:33:25.977Z,91.30
2019-02-23T20:37:36.261Z,93.50
2019-02-23T20:41:42.571Z,93.00
2019-02-23T20:50:02.647Z,91.20
2019-02-23T20:54:06.085Z,92.60
2019-02-23T20:58:09.467Z,92.90
2019-02-23T21:02:12.905Z,92.90
2019-02-23T21:06:16.294Z,92.50
2019-02-23T21:10:19.707Z,94.10
2019-02-23T21:14:23.135Z,93.50
2019-02-23T21:18:26.519Z,92.00
2019-02-23T21:22:29.916Z,92.50
2019-02-23T21:26:33.296Z,92.80
2019-02-23T21:30:36.759Z,93.10
2019-02-23T21:34:40.189Z,93.10
2019-02-23T21:38:43.566Z,92.80
2019-02-23T21:42:46.956Z,92.70
2019-02-23T21:46:50.379Z,92.90
2019-02-23T21:50:53.800Z,93.10
2019-02-23T21:54:57.198Z,93.50
2019-02-23T21:59:00.598Z,93.50
2019-02-23T22:03:03.991Z,93.00
2019-02-23T22:07:07.371Z,92.60
2019-02-23T22:11:10.804Z,92.80
2019-02-23T22:15:14.226Z,92.60
2019-02-23T22:19:17.616Z,92.00
2019-02-23T22:23:20.997Z,91.10
2019-02-23T22:27:31.149Z,90.00
2019-02-23T22:31:29.549Z,89.60
2019-02-23T22:35:32.980Z,90.30
2019-02-23T22:39:36.602Z,91.00
2019-02-23T22:43:40.082Z,91.10
2019-02-23T22:47:43.456Z,90.70
2019-02-23T22:51:47.046Z,90.50
2019-02-23T22:55:50.606Z,90.10
2019-02-23T22:59:54.104Z,89.60
2019-02-23T23:03:57.524Z,88.80
2019-02-23T23:08:00.930Z,88.50
2019-02-23T23:12:05.368Z,87.50
2019-02-23T23:16:08.825Z,86.00
2019-02-23T23:20:12.250Z,85.10
2019-02-23T23:24:15.670Z,84.80
2019-02-23T23:28:19.110Z,84.10
2019-02-23T23:32:22.515Z,83.90
2019-02-23T23:36:25.940Z,84.50
2019-02-23T23:40:29.296Z,87.50
2019-02-23T23:44:32.669Z,90.10
2019-02-23T23:48:36.188Z,90.60
2019-02-23T23:52:40.215Z,90.40
2019-02-23T23:56:43.603Z,90.60
